sensor_id;sensor_type;location;lat;lon;timestamp;temperature;humidity
45969;DHT22;31676;40.444;-3.668;2023-04-24T00:01:47;23.70;71.00
45969;DHT22;31676;40.444;-3.668;2023-04-24T00:04:13;23.80;71.00
45969;DHT22;31676;40.444;-3.668;2023-04-24T00:06:41;23.80;71.00
45969;DHT22;31676;40.444;-3.668;2023-04-24T00:09:08;23.80;71.00
45969;DHT22;31676;40.444;-3.668;2023-04-24T00:11:35;23.70;70.90
45969;DHT22;31676;40.444;-3.668;2023-04-24T00:14:01;23.70;71.00
45969;DHT22;31676;40.444;-3.668;2023-04-24T00:16:27;23.70;71.00
45969;DHT22;31676;40.444;-3.668;2023-04-24T00:18:53;23.70;71.00
45969;DHT22;31676;40.444;-3.668;2023-04-24T00:21:19;23.70;71.00
45969;DHT22;31676;40.444;-3.668;2023-04-24T00:23:45;23.70;71.00
45969;DHT22;31676;40.444;-3.668;2023-04-24T00:26:11;23.70;70.90
45969;DHT22;31676;40.444;-3.668;2023-04-24T00:28:37;23.70;71.00
45969;DHT22;31676;40.444;-3.668;2023-04-24T00:31:02;23.70;71.00
45969;DHT22;31676;40.444;-3.668;2023-04-24T00:33:28;23.70;71.00
45969;DHT22;31676;40.444;-3.668;2023-04-24T00:35:54;23.70;71.00
45969;DHT22;31676;40.444;-3.668;2023-04-24T00:38:19;23.70;71.00
45969;DHT22;31676;40.444;-3.668;2023-04-24T00:40:45;23.70;71.00
45969;DHT22;31676;40.444;-3.668;2023-04-24T00:43:12;23.70;71.00
45969;DHT22;31676;40.444;-3.668;2023-04-24T00:45:38;23.70;71.00
45969;DHT22;31676;40.444;-3.668;2023-04-24T00:48:04;23.70;71.00
45969;DHT22;31676;40.444;-3.668;2023-04-24T00:50:30;23.70;71.00
45969;DHT22;31676;40.444;-3.668;2023-04-24T00:52:55;23.70;71.00
45969;DHT22;31676;40.444;-3.668;2023-04-24T00:55:21;23.70;71.00
45969;DHT22;31676;40.444;-3.668;2023-04-24T00:57:47;23.70;71.00
45969;DHT22;31676;40.444;-3.668;2023-04-24T01:00:14;23.70;71.00
45969;DHT22;31676;40.444;-3.668;2023-04-24T01:02:40;23.70;71.00
45969;DHT22;31676;40.444;-3.668;2023-04-24T01:05:09;23.70;71.00
45969;DHT22;31676;40.444;-3.668;2023-04-24T01:07:35;23.70;71.00
45969;DHT22;31676;40.444;-3.668;2023-04-24T01:10:01;23.70;71.10
45969;DHT22;31676;40.444;-3.668;2023-04-24T01:12:27;23.70;71.00
45969;DHT22;31676;40.444;-3.668;2023-04-24T01:14:53;23.70;71.10
45969;DHT22;31676;40.444;-3.668;2023-04-24T01:17:20;23.70;71.00
45969;DHT22;31676;40.444;-3.668;2023-04-24T01:19:46;23.70;71.00
45969;DHT22;31676;40.444;-3.668;2023-04-24T01:22:14;23.70;71.00
45969;DHT22;31676;40.444;-3.668;2023-04-24T01:24:41;23.70;71.00
45969;DHT22;31676;40.444;-3.668;2023-04-24T01:27:08;23.60;71.00
45969;DHT22;31676;40.444;-3.668;2023-04-24T01:29:34;23.60;71.00
45969;DHT22;31676;40.444;-3.668;2023-04-24T01:32:00;23.60;71.00
45969;DHT22;31676;40.444;-3.668;2023-04-24T01:34:26;23.70;71.10
45969;DHT22;31676;40.444;-3.668;2023-04-24T01:36:52;23.60;71.00
45969;DHT22;31676;40.444;-3.668;2023-04-24T01:39:18;23.60;71.00
45969;DHT22;31676;40.444;-3.668;2023-04-24T01:41:46;23.60;71.00
45969;DHT22;31676;40.444;-3.668;2023-04-24T01:44:12;23.60;71.00
45969;DHT22;31676;40.444;-3.668;2023-04-24T01:46:37;23.60;71.00
45969;DHT22;31676;40.444;-3.668;2023-04-24T01:49:03;23.60;71.00
45969;DHT22;31676;40.444;-3.668;2023-04-24T01:51:29;23.60;71.00
45969;DHT22;31676;40.444;-3.668;2023-04-24T01:53:55;23.60;71.00
45969;DHT22;31676;40.444;-3.668;2023-04-24T01:56:21;23.60;71.00
45969;DHT22;31676;40.444;-3.668;2023-04-24T02:01:32;23.60;71.00
45969;DHT22;31676;40.444;-3.668;2023-04-24T02:03:59;23.60;71.10
45969;DHT22;31676;40.444;-3.668;2023-04-24T02:06:24;23.60;71.00
45969;DHT22;31676;40.444;-3.668;2023-04-24T02:08:50;23.60;71.00
45969;DHT22;31676;40.444;-3.668;2023-04-24T02:11:16;23.60;71.00
45969;DHT22;31676;40.444;-3.668;2023-04-24T02:13:41;23.60;71.00
45969;DHT22;31676;40.444;-3.668;2023-04-24T02:16:07;23.60;71.00
45969;DHT22;31676;40.444;-3.668;2023-04-24T02:18:33;23.60;71.00
45969;DHT22;31676;40.444;-3.668;2023-04-24T02:20:58;23.60;71.00
45969;DHT22;31676;40.444;-3.668;2023-04-24T02:23:25;23.60;71.00
45969;DHT22;31676;40.444;-3.668;2023-04-24T02:25:52;23.60;71.00
45969;DHT22;31676;40.444;-3.668;2023-04-24T02:28:18;23.60;71.10
45969;DHT22;31676;40.444;-3.668;2023-04-24T02:30:44;23.60;71.00
45969;DHT22;31676;40.444;-3.668;2023-04-24T02:33:11;23.60;71.10
45969;DHT22;31676;40.444;-3.668;2023-04-24T02:35:36;23.60;71.00
45969;DHT22;31676;40.444;-3.668;2023-04-24T02:38:02;23.60;71.00
45969;DHT22;31676;40.444;-3.668;2023-04-24T02:40:28;23.60;71.10
45969;DHT22;31676;40.444;-3.668;2023-04-24T02:42:54;23.60;71.10
45969;DHT22;31676;40.444;-3.668;2023-04-24T02:45:20;23.60;71.10
45969;DHT22;31676;40.444;-3.668;2023-04-24T02:47:45;23.50;71.00
45969;DHT22;31676;40.444;-3.668;2023-04-24T02:50:11;23.50;71.10
45969;DHT22;31676;40.444;-3.668;2023-04-24T02:52:37;23.50;71.00
45969;DHT22;31676;40.444;-3.668;2023-04-24T02:55:02;23.50;71.00
45969;DHT22;31676;40.444;-3.668;2023-04-24T02:57:28;23.60;71.10
45969;DHT22;31676;40.444;-3.668;2023-04-24T02:59:54;23.50;71.00
45969;DHT22;31676;40.444;-3.668;2023-04-24T03:02:19;23.50;71.10
45969;DHT22;31676;40.444;-3.668;2023-04-24T03:04:46;23.50;71.00
45969;DHT22;31676;40.444;-3.668;2023-04-24T03:07:13;23.50;71.10
45969;DHT22;31676;40.444;-3.668;2023-04-24T03:09:40;23.50;71.10
45969;DHT22;31676;40.444;-3.668;2023-04-24T03:12:05;23.50;71.10
45969;DHT22;31676;40.444;-3.668;2023-04-24T03:14:31;23.50;71.10
45969;DHT22;31676;40.444;-3.668;2023-04-24T03:16:57;23.50;71.10
45969;DHT22;31676;40.444;-3.668;2023-04-24T03:19:23;23.50;71.10
45969;DHT22;31676;40.444;-3.668;2023-04-24T03:21:49;23.50;71.10
45969;DHT22;31676;40.444;-3.668;2023-04-24T03:24:15;23.50;71.10
45969;DHT22;31676;40.444;-3.668;2023-04-24T03:26:41;23.50;71.10
45969;DHT22;31676;40.444;-3.668;2023-04-24T03:29:06;23.50;71.10
45969;DHT22;31676;40.444;-3.668;2023-04-24T03:31:32;23.50;71.10
45969;DHT22;31676;40.444;-3.668;2023-04-24T03:33:58;23.50;71.10
45969;DHT22;31676;40.444;-3.668;2023-04-24T03:36:24;23.50;71.10
45969;DHT22;31676;40.444;-3.668;2023-04-24T03:38:49;23.50;71.10
45969;DHT22;31676;40.444;-3.668;2023-04-24T03:41:15;23.50;71.10
45969;DHT22;31676;40.444;-3.668;2023-04-24T03:43:41;23.50;71.10
45969;DHT22;31676;40.444;-3.668;2023-04-24T03:46:06;23.50;71.10
45969;DHT22;31676;40.444;-3.668;2023-04-24T03:48:34;23.50;71.10
45969;DHT22;31676;40.444;-3.668;2023-04-24T03:51:00;23.50;71.10
45969;DHT22;31676;40.444;-3.668;2023-04-24T03:53:26;23.50;71.10
45969;DHT22;31676;40.444;-3.668;2023-04-24T03:55:52;23.40;71.10
45969;DHT22;31676;40.444;-3.668;2023-04-24T03:58:18;23.50;71.10
45969;DHT22;31676;40.444;-3.668;2023-04-24T04:00:44;23.50;71.10
45969;DHT22;31676;40.444;-3.668;2023-04-24T04:03:09;23.40;71.10
45969;DHT22;31676;40.444;-3.668;2023-04-24T04:05:35;23.40;71.10
45969;DHT22;31676;40.444;-3.668;2023-04-24T04:08:01;23.40;71.10
45969;DHT22;31676;40.444;-3.668;2023-04-24T04:10:27;23.40;71.10
45969;DHT22;31676;40.444;-3.668;2023-04-24T04:12:53;23.40;71.10
45969;DHT22;31676;40.444;-3.668;2023-04-24T04:15:18;23.40;71.10
45969;DHT22;31676;40.444;-3.668;2023-04-24T04:17:44;23.40;71.10
45969;DHT22;31676;40.444;-3.668;2023-04-24T04:20:11;23.40;71.10
45969;DHT22;31676;40.444;-3.668;2023-04-24T04:22:37;23.40;71.10
45969;DHT22;31676;40.444;-3.668;2023-04-24T04:25:03;23.40;71.10
45969;DHT22;31676;40.444;-3.668;2023-04-24T04:27:29;23.40;71.10
45969;DHT22;31676;40.444;-3.668;2023-04-24T04:30:00;23.40;71.10
45969;DHT22;31676;40.444;-3.668;2023-04-24T04:32:33;23.40;71.80
45969;DHT22;31676;40.444;-3.668;2023-04-24T04:34:59;23.40;71.10
45969;DHT22;31676;40.444;-3.668;2023-04-24T04:37:31;23.40;71.10
45969;DHT22;31676;40.444;-3.668;2023-04-24T04:39:58;23.40;71.20
45969;DHT22;31676;40.444;-3.668;2023-04-24T04:42:24;23.30;71.10
45969;DHT22;31676;40.444;-3.668;2023-04-24T04:44:50;23.30;71.10
45969;DHT22;31676;40.444;-3.668;2023-04-24T04:47:16;23.30;71.10
45969;DHT22;31676;40.444;-3.668;2023-04-24T04:49:43;23.30;71.10
45969;DHT22;31676;40.444;-3.668;2023-04-24T04:52:09;23.30;71.10
45969;DHT22;31676;40.444;-3.668;2023-04-24T04:54:34;23.30;71.10
45969;DHT22;31676;40.444;-3.668;2023-04-24T04:57:00;23.30;71.10
45969;DHT22;31676;40.444;-3.668;2023-04-24T04:59:26;23.30;71.10
45969;DHT22;31676;40.444;-3.668;2023-04-24T05:01:52;23.30;71.10
45969;DHT22;31676;40.444;-3.668;2023-04-24T05:04:18;23.30;71.10
45969;DHT22;31676;40.444;-3.668;2023-04-24T05:06:44;23.30;71.10
45969;DHT22;31676;40.444;-3.668;2023-04-24T05:09:10;23.30;71.10
45969;DHT22;31676;40.444;-3.668;2023-04-24T05:11:35;23.30;71.10
45969;DHT22;31676;40.444;-3.668;2023-04-24T05:14:01;23.30;71.10
45969;DHT22;31676;40.444;-3.668;2023-04-24T05:16:27;23.30;71.20
45969;DHT22;31676;40.444;-3.668;2023-04-24T05:18:52;23.30;71.10
45969;DHT22;31676;40.444;-3.668;2023-04-24T05:21:18;23.30;71.10
45969;DHT22;31676;40.444;-3.668;2023-04-24T05:23:44;23.30;71.10
45969;DHT22;31676;40.444;-3.668;2023-04-24T05:26:09;23.30;71.10
45969;DHT22;31676;40.444;-3.668;2023-04-24T05:28:35;23.30;71.10
45969;DHT22;31676;40.444;-3.668;2023-04-24T05:31:02;23.30;71.10
45969;DHT22;31676;40.444;-3.668;2023-04-24T05:33:28;23.30;71.10
45969;DHT22;31676;40.444;-3.668;2023-04-24T05:35:54;23.30;71.20
45969;DHT22;31676;40.444;-3.668;2023-04-24T05:38:19;23.30;71.10
45969;DHT22;31676;40.444;-3.668;2023-04-24T05:40:45;23.30;71.20
45969;DHT22;31676;40.444;-3.668;2023-04-24T05:43:11;23.30;71.10
45969;DHT22;31676;40.444;-3.668;2023-04-24T05:45:37;23.30;71.10
45969;DHT22;31676;40.444;-3.668;2023-04-24T05:48:03;23.30;71.10
45969;DHT22;31676;40.444;-3.668;2023-04-24T05:50:29;23.30;71.10
45969;DHT22;31676;40.444;-3.668;2023-04-24T05:52:55;23.30;71.10
45969;DHT22;31676;40.444;-3.668;2023-04-24T05:55:23;23.30;71.10
45969;DHT22;31676;40.444;-3.668;2023-04-24T05:57:49;23.30;71.10
45969;DHT22;31676;40.444;-3.668;2023-04-24T06:00:15;23.20;71.10
45969;DHT22;31676;40.444;-3.668;2023-04-24T06:02:41;23.20;71.10
45969;DHT22;31676;40.444;-3.668;2023-04-24T06:05:07;23.20;71.10
45969;DHT22;31676;40.444;-3.668;2023-04-24T06:07:33;23.20;71.10
45969;DHT22;31676;40.444;-3.668;2023-04-24T06:09:59;23.20;71.10
45969;DHT22;31676;40.444;-3.668;2023-04-24T06:12:25;23.20;71.10
45969;DHT22;31676;40.444;-3.668;2023-04-24T06:14:51;23.20;71.10
45969;DHT22;31676;40.444;-3.668;2023-04-24T06:17:16;23.20;71.10
45969;DHT22;31676;40.444;-3.668;2023-04-24T06:19:42;23.20;71.10
45969;DHT22;31676;40.444;-3.668;2023-04-24T06:22:08;23.20;71.10
45969;DHT22;31676;40.444;-3.668;2023-04-24T06:24:34;23.20;71.10
45969;DHT22;31676;40.444;-3.668;2023-04-24T06:27:00;23.20;71.10
45969;DHT22;31676;40.444;-3.668;2023-04-24T06:29:27;23.20;71.10
45969;DHT22;31676;40.444;-3.668;2023-04-24T06:31:52;23.20;71.10
45969;DHT22;31676;40.444;-3.668;2023-04-24T06:34:18;23.20;71.10
45969;DHT22;31676;40.444;-3.668;2023-04-24T06:36:44;23.20;71.10
45969;DHT22;31676;40.444;-3.668;2023-04-24T06:39:10;23.20;71.10
45969;DHT22;31676;40.444;-3.668;2023-04-24T06:41:35;23.20;71.10
45969;DHT22;31676;40.444;-3.668;2023-04-24T06:44:01;23.20;71.10
45969;DHT22;31676;40.444;-3.668;2023-04-24T06:46:27;23.20;71.10
45969;DHT22;31676;40.444;-3.668;2023-04-24T06:48:53;23.20;71.10
45969;DHT22;31676;40.444;-3.668;2023-04-24T06:51:25;23.20;71.10
45969;DHT22;31676;40.444;-3.668;2023-04-24T06:53:51;23.20;71.10
45969;DHT22;31676;40.444;-3.668;2023-04-24T06:56:17;23.20;71.10
45969;DHT22;31676;40.444;-3.668;2023-04-24T06:58:42;23.20;71.10
45969;DHT22;31676;40.444;-3.668;2023-04-24T07:01:09;23.20;71.10
45969;DHT22;31676;40.444;-3.668;2023-04-24T07:03:35;23.20;71.10
45969;DHT22;31676;40.444;-3.668;2023-04-24T07:06:01;23.20;71.10
45969;DHT22;31676;40.444;-3.668;2023-04-24T07:08:29;23.20;71.10
45969;DHT22;31676;40.444;-3.668;2023-04-24T07:10:56;23.20;71.10
45969;DHT22;31676;40.444;-3.668;2023-04-24T07:13:22;23.20;71.10
45969;DHT22;31676;40.444;-3.668;2023-04-24T07:15:48;23.20;71.10
45969;DHT22;31676;40.444;-3.668;2023-04-24T07:18:16;23.20;71.00
45969;DHT22;31676;40.444;-3.668;2023-04-24T07:20:42;23.20;71.10
45969;DHT22;31676;40.444;-3.668;2023-04-24T07:23:07;23.20;71.10
45969;DHT22;31676;40.444;-3.668;2023-04-24T07:25:33;23.20;71.10
45969;DHT22;31676;40.444;-3.668;2023-04-24T07:27:59;23.20;71.00
45969;DHT22;31676;40.444;-3.668;2023-04-24T07:30:25;23.20;71.00
45969;DHT22;31676;40.444;-3.668;2023-04-24T07:32:51;23.20;71.00
45969;DHT22;31676;40.444;-3.668;2023-04-24T07:35:16;23.20;71.30
45969;DHT22;31676;40.444;-3.668;2023-04-24T07:37:42;23.20;71.00
45969;DHT22;31676;40.444;-3.668;2023-04-24T07:40:13;23.20;71.00
45969;DHT22;31676;40.444;-3.668;2023-04-24T07:42:39;23.20;71.00
45969;DHT22;31676;40.444;-3.668;2023-04-24T07:45:05;23.20;71.00
45969;DHT22;31676;40.444;-3.668;2023-04-24T07:47:31;23.20;71.00
45969;DHT22;31676;40.444;-3.668;2023-04-24T07:49:57;23.20;71.00
45969;DHT22;31676;40.444;-3.668;2023-04-24T07:52:23;23.20;71.00
45969;DHT22;31676;40.444;-3.668;2023-04-24T07:54:49;23.20;71.00
45969;DHT22;31676;40.444;-3.668;2023-04-24T07:57:15;23.30;71.00
45969;DHT22;31676;40.444;-3.668;2023-04-24T07:59:41;23.20;70.90
45969;DHT22;31676;40.444;-3.668;2023-04-24T08:02:07;23.20;71.00
45969;DHT22;31676;40.444;-3.668;2023-04-24T08:04:33;23.20;71.00
45969;DHT22;31676;40.444;-3.668;2023-04-24T08:06:58;23.20;71.00
45969;DHT22;31676;40.444;-3.668;2023-04-24T08:09:24;23.30;71.00
45969;DHT22;31676;40.444;-3.668;2023-04-24T08:11:50;23.20;71.00
45969;DHT22;31676;40.444;-3.668;2023-04-24T08:14:16;23.20;70.90
45969;DHT22;31676;40.444;-3.668;2023-04-24T08:16:42;23.30;71.00
45969;DHT22;31676;40.444;-3.668;2023-04-24T08:19:08;23.30;71.00
45969;DHT22;31676;40.444;-3.668;2023-04-24T08:21:33;23.30;71.00
45969;DHT22;31676;40.444;-3.668;2023-04-24T08:23:59;23.30;71.00
45969;DHT22;31676;40.444;-3.668;2023-04-24T08:26:25;23.30;71.00
45969;DHT22;31676;40.444;-3.668;2023-04-24T08:28:51;23.30;71.00
45969;DHT22;31676;40.444;-3.668;2023-04-24T08:31:17;23.30;71.00
45969;DHT22;31676;40.444;-3.668;2023-04-24T08:33:42;23.30;71.00
45969;DHT22;31676;40.444;-3.668;2023-04-24T08:36:10;23.30;71.00
45969;DHT22;31676;40.444;-3.668;2023-04-24T08:38:36;23.30;70.90
45969;DHT22;31676;40.444;-3.668;2023-04-24T08:41:01;23.30;71.00
45969;DHT22;31676;40.444;-3.668;2023-04-24T08:43:27;23.30;70.90
45969;DHT22;31676;40.444;-3.668;2023-04-24T08:45:56;23.30;71.60
45969;DHT22;31676;40.444;-3.668;2023-04-24T08:48:22;23.30;71.00
45969;DHT22;31676;40.444;-3.668;2023-04-24T08:50:50;23.20;70.90
45969;DHT22;31676;40.444;-3.668;2023-04-24T08:53:16;23.30;70.90
45969;DHT22;31676;40.444;-3.668;2023-04-24T08:55:43;23.30;70.90
45969;DHT22;31676;40.444;-3.668;2023-04-24T08:58:09;23.30;70.90
45969;DHT22;31676;40.444;-3.668;2023-04-24T09:00:35;23.30;70.90
45969;DHT22;31676;40.444;-3.668;2023-04-24T09:03:01;23.30;70.90
45969;DHT22;31676;40.444;-3.668;2023-04-24T09:05:33;23.30;70.90
45969;DHT22;31676;40.444;-3.668;2023-04-24T09:08:00;23.30;70.90
45969;DHT22;31676;40.444;-3.668;2023-04-24T09:10:30;23.30;70.90
45969;DHT22;31676;40.444;-3.668;2023-04-24T09:12:56;23.30;70.90
45969;DHT22;31676;40.444;-3.668;2023-04-24T09:15:23;23.40;70.90
45969;DHT22;31676;40.444;-3.668;2023-04-24T09:17:49;23.40;70.90
45969;DHT22;31676;40.444;-3.668;2023-04-24T09:20:15;23.40;70.90
45969;DHT22;31676;40.444;-3.668;2023-04-24T09:22:41;23.40;70.90
45969;DHT22;31676;40.444;-3.668;2023-04-24T09:25:07;23.40;70.90
45969;DHT22;31676;40.444;-3.668;2023-04-24T09:27:34;23.40;70.90
45969;DHT22;31676;40.444;-3.668;2023-04-24T09:30:00;23.40;70.90
45969;DHT22;31676;40.444;-3.668;2023-04-24T09:32:26;23.40;70.90
45969;DHT22;31676;40.444;-3.668;2023-04-24T09:35:13;23.40;70.90
45969;DHT22;31676;40.444;-3.668;2023-04-24T09:37:39;23.40;71.50
45969;DHT22;31676;40.444;-3.668;2023-04-24T09:40:07;23.40;70.80
45969;DHT22;31676;40.444;-3.668;2023-04-24T09:42:33;23.40;70.80
45969;DHT22;31676;40.444;-3.668;2023-04-24T09:44:58;23.50;70.80
45969;DHT22;31676;40.444;-3.668;2023-04-24T09:47:24;23.50;70.80
45969;DHT22;31676;40.444;-3.668;2023-04-24T09:49:50;23.50;70.80
45969;DHT22;31676;40.444;-3.668;2023-04-24T09:52:15;23.50;70.80
45969;DHT22;31676;40.444;-3.668;2023-04-24T09:54:41;23.50;70.80
45969;DHT22;31676;40.444;-3.668;2023-04-24T09:57:07;23.50;73.40
45969;DHT22;31676;40.444;-3.668;2023-04-24T09:59:33;23.60;73.20
45969;DHT22;31676;40.444;-3.668;2023-04-24T10:01:59;23.50;72.90
45969;DHT22;31676;40.444;-3.668;2023-04-24T10:04:25;23.60;72.80
45969;DHT22;31676;40.444;-3.668;2023-04-24T10:06:52;23.50;72.60
45969;DHT22;31676;40.444;-3.668;2023-04-24T10:09:19;23.60;72.70
45969;DHT22;31676;40.444;-3.668;2023-04-24T10:11:45;23.50;72.60
45969;DHT22;31676;40.444;-3.668;2023-04-24T10:14:12;23.60;72.60
45969;DHT22;31676;40.444;-3.668;2023-04-24T10:16:38;23.60;72.50
45969;DHT22;31676;40.444;-3.668;2023-04-24T10:19:04;23.60;72.50
45969;DHT22;31676;40.444;-3.668;2023-04-24T10:21:30;23.60;72.40
45969;DHT22;31676;40.444;-3.668;2023-04-24T10:23:56;23.60;72.40
45969;DHT22;31676;40.444;-3.668;2023-04-24T10:26:23;23.60;72.40
45969;DHT22;31676;40.444;-3.668;2023-04-24T10:28:49;23.60;72.30
45969;DHT22;31676;40.444;-3.668;2023-04-24T10:31:15;23.60;72.30
45969;DHT22;31676;40.444;-3.668;2023-04-24T10:33:41;23.50;72.20
45969;DHT22;31676;40.444;-3.668;2023-04-24T10:36:08;23.60;72.30
45969;DHT22;31676;40.444;-3.668;2023-04-24T10:38:35;23.60;72.30
45969;DHT22;31676;40.444;-3.668;2023-04-24T10:41:10;23.60;72.30
45969;DHT22;31676;40.444;-3.668;2023-04-24T10:43:41;23.60;72.30
45969;DHT22;31676;40.444;-3.668;2023-04-24T10:46:07;23.60;72.20
45969;DHT22;31676;40.444;-3.668;2023-04-24T10:48:35;23.60;72.20
45969;DHT22;31676;40.444;-3.668;2023-04-24T10:51:01;23.60;72.20
45969;DHT22;31676;40.444;-3.668;2023-04-24T10:53:28;23.60;72.20
45969;DHT22;31676;40.444;-3.668;2023-04-24T10:56:15;23.60;72.20
45969;DHT22;31676;40.444;-3.668;2023-04-24T11:01:26;23.60;72.20
45969;DHT22;31676;40.444;-3.668;2023-04-24T11:03:56;23.70;72.20
45969;DHT22;31676;40.444;-3.668;2023-04-24T11:06:28;23.70;72.20
45969;DHT22;31676;40.444;-3.668;2023-04-24T11:09:04;23.60;72.10
45969;DHT22;31676;40.444;-3.668;2023-04-24T11:11:31;23.70;72.10
45969;DHT22;31676;40.444;-3.668;2023-04-24T11:16:33;23.70;72.10
45969;DHT22;31676;40.444;-3.668;2023-04-24T11:19:00;23.70;72.00
45969;DHT22;31676;40.444;-3.668;2023-04-24T11:21:27;23.70;72.00
45969;DHT22;31676;40.444;-3.668;2023-04-24T11:23:57;23.70;72.00
45969;DHT22;31676;40.444;-3.668;2023-04-24T11:26:22;23.70;71.90
45969;DHT22;31676;40.444;-3.668;2023-04-24T11:28:55;23.70;72.00
45969;DHT22;31676;40.444;-3.668;2023-04-24T11:34:11;23.70;71.90
45969;DHT22;31676;40.444;-3.668;2023-04-24T11:36:38;23.70;71.80
45969;DHT22;31676;40.444;-3.668;2023-04-24T11:39:04;23.70;71.80
45969;DHT22;31676;40.444;-3.668;2023-04-24T11:41:30;23.80;71.90
45969;DHT22;31676;40.444;-3.668;2023-04-24T11:43:56;23.80;71.80
45969;DHT22;31676;40.444;-3.668;2023-04-24T11:46:22;23.70;71.80
45969;DHT22;31676;40.444;-3.668;2023-04-24T11:48:48;23.80;71.80
45969;DHT22;31676;40.444;-3.668;2023-04-24T11:51:14;23.80;71.80
45969;DHT22;31676;40.444;-3.668;2023-04-24T11:53:40;23.80;71.80
45969;DHT22;31676;40.444;-3.668;2023-04-24T11:56:06;23.80;71.80
45969;DHT22;31676;40.444;-3.668;2023-04-24T11:58:35;23.80;71.80
45969;DHT22;31676;40.444;-3.668;2023-04-24T12:01:01;23.80;71.80
45969;DHT22;31676;40.444;-3.668;2023-04-24T12:03:26;23.80;71.80
45969;DHT22;31676;40.444;-3.668;2023-04-24T12:05:52;23.80;71.70
45969;DHT22;31676;40.444;-3.668;2023-04-24T12:08:27;23.80;71.70
45969;DHT22;31676;40.444;-3.668;2023-04-24T12:10:53;23.80;71.70
45969;DHT22;31676;40.444;-3.668;2023-04-24T12:13:19;23.80;71.70
45969;DHT22;31676;40.444;-3.668;2023-04-24T12:15:45;23.90;71.80
45969;DHT22;31676;40.444;-3.668;2023-04-24T12:18:14;23.90;71.80
45969;DHT22;31676;40.444;-3.668;2023-04-24T12:20:42;23.90;71.80
45969;DHT22;31676;40.444;-3.668;2023-04-24T12:23:08;23.90;71.70
45969;DHT22;31676;40.444;-3.668;2023-04-24T12:25:33;23.90;71.70
45969;DHT22;31676;40.444;-3.668;2023-04-24T12:30:28;23.90;71.70
45969;DHT22;31676;40.444;-3.668;2023-04-24T12:32:56;23.90;71.70
45969;DHT22;31676;40.444;-3.668;2023-04-24T12:35:23;23.90;71.60
45969;DHT22;31676;40.444;-3.668;2023-04-24T12:37:49;23.90;71.60
45969;DHT22;31676;40.444;-3.668;2023-04-24T12:40:15;23.90;71.60
45969;DHT22;31676;40.444;-3.668;2023-04-24T12:42:45;23.90;71.60
45969;DHT22;31676;40.444;-3.668;2023-04-24T12:45:11;23.90;71.60
45969;DHT22;31676;40.444;-3.668;2023-04-24T12:47:38;24.00;71.70
45969;DHT22;31676;40.444;-3.668;2023-04-24T12:50:04;23.90;71.60
45969;DHT22;31676;40.444;-3.668;2023-04-24T12:52:31;23.90;71.60
45969;DHT22;31676;40.444;-3.668;2023-04-24T12:54:57;23.90;71.60
45969;DHT22;31676;40.444;-3.668;2023-04-24T12:57:23;24.00;71.60
45969;DHT22;31676;40.444;-3.668;2023-04-24T12:59:49;24.00;71.60
45969;DHT22;31676;40.444;-3.668;2023-04-24T13:02:16;24.00;71.60
45969;DHT22;31676;40.444;-3.668;2023-04-24T13:04:45;24.00;71.60
45969;DHT22;31676;40.444;-3.668;2023-04-24T13:07:11;24.00;71.60
45969;DHT22;31676;40.444;-3.668;2023-04-24T13:09:37;24.00;71.60
45969;DHT22;31676;40.444;-3.668;2023-04-24T13:12:03;24.00;71.60
45969;DHT22;31676;40.444;-3.668;2023-04-24T13:14:33;24.00;71.60
45969;DHT22;31676;40.444;-3.668;2023-04-24T13:16:59;24.10;71.70
45969;DHT22;31676;40.444;-3.668;2023-04-24T13:19:25;24.00;71.60
45969;DHT22;31676;40.444;-3.668;2023-04-24T13:21:51;24.00;71.60
45969;DHT22;31676;40.444;-3.668;2023-04-24T13:24:17;24.00;71.60
45969;DHT22;31676;40.444;-3.668;2023-04-24T13:26:43;24.00;71.50
45969;DHT22;31676;40.444;-3.668;2023-04-24T13:29:09;24.10;71.60
45969;DHT22;31676;40.444;-3.668;2023-04-24T13:31:35;24.10;71.60
45969;DHT22;31676;40.444;-3.668;2023-04-24T13:34:02;24.10;71.60
45969;DHT22;31676;40.444;-3.668;2023-04-24T13:36:27;24.10;71.60
45969;DHT22;31676;40.444;-3.668;2023-04-24T13:38:53;24.10;71.60
45969;DHT22;31676;40.444;-3.668;2023-04-24T13:41:19;24.10;71.60
45969;DHT22;31676;40.444;-3.668;2023-04-24T13:43:44;24.10;71.60
45969;DHT22;31676;40.444;-3.668;2023-04-24T13:46:10;24.10;71.60
45969;DHT22;31676;40.444;-3.668;2023-04-24T13:48:36;24.10;71.60
45969;DHT22;31676;40.444;-3.668;2023-04-24T13:51:01;24.10;71.60
45969;DHT22;31676;40.444;-3.668;2023-04-24T13:53:27;24.10;71.60
45969;DHT22;31676;40.444;-3.668;2023-04-24T13:55:53;24.10;71.60
45969;DHT22;31676;40.444;-3.668;2023-04-24T13:58:19;24.10;71.60
45969;DHT22;31676;40.444;-3.668;2023-04-24T14:00:44;24.10;71.60
45969;DHT22;31676;40.444;-3.668;2023-04-24T14:03:10;24.10;71.60
45969;DHT22;31676;40.444;-3.668;2023-04-24T14:05:36;24.10;71.60
45969;DHT22;31676;40.444;-3.668;2023-04-24T14:08:02;24.10;71.50
45969;DHT22;31676;40.444;-3.668;2023-04-24T14:10:27;24.20;71.60
45969;DHT22;31676;40.444;-3.668;2023-04-24T14:12:53;24.10;71.50
45969;DHT22;31676;40.444;-3.668;2023-04-24T14:15:19;24.20;71.60
45969;DHT22;31676;40.444;-3.668;2023-04-24T14:17:45;24.20;71.60
45969;DHT22;31676;40.444;-3.668;2023-04-24T14:20:11;24.20;71.60
45969;DHT22;31676;40.444;-3.668;2023-04-24T14:22:37;24.20;71.60
45969;DHT22;31676;40.444;-3.668;2023-04-24T14:25:04;24.20;71.60
45969;DHT22;31676;40.444;-3.668;2023-04-24T14:27:30;24.20;71.60
45969;DHT22;31676;40.444;-3.668;2023-04-24T14:29:57;24.20;71.60
45969;DHT22;31676;40.444;-3.668;2023-04-24T14:32:23;24.20;71.60
45969;DHT22;31676;40.444;-3.668;2023-04-24T14:34:48;24.20;71.50
45969;DHT22;31676;40.444;-3.668;2023-04-24T14:37:14;24.20;71.50
45969;DHT22;31676;40.444;-3.668;2023-04-24T14:39:40;24.20;71.50
45969;DHT22;31676;40.444;-3.668;2023-04-24T14:42:06;24.20;71.50
45969;DHT22;31676;40.444;-3.668;2023-04-24T14:44:32;24.20;71.50
45969;DHT22;31676;40.444;-3.668;2023-04-24T14:46:58;24.20;71.50
45969;DHT22;31676;40.444;-3.668;2023-04-24T14:49:23;24.30;71.60
45969;DHT22;31676;40.444;-3.668;2023-04-24T14:51:49;24.30;71.60
45969;DHT22;31676;40.444;-3.668;2023-04-24T14:54:15;24.30;71.50
45969;DHT22;31676;40.444;-3.668;2023-04-24T14:56:41;24.30;71.50
45969;DHT22;31676;40.444;-3.668;2023-04-24T14:59:08;24.30;71.50
45969;DHT22;31676;40.444;-3.668;2023-04-24T15:01:33;24.30;71.50
45969;DHT22;31676;40.444;-3.668;2023-04-24T15:03:59;24.30;71.50
45969;DHT22;31676;40.444;-3.668;2023-04-24T15:06:25;24.30;71.50
45969;DHT22;31676;40.444;-3.668;2023-04-24T15:08:50;24.30;71.50
45969;DHT22;31676;40.444;-3.668;2023-04-24T15:11:17;24.30;71.50
45969;DHT22;31676;40.444;-3.668;2023-04-24T15:13:42;24.30;71.50
45969;DHT22;31676;40.444;-3.668;2023-04-24T15:16:10;24.30;71.50
45969;DHT22;31676;40.444;-3.668;2023-04-24T15:18:36;24.30;71.50
45969;DHT22;31676;40.444;-3.668;2023-04-24T15:21:01;24.30;71.40
45969;DHT22;31676;40.444;-3.668;2023-04-24T15:23:27;24.30;71.50